Time,TemperatureF,DewpointF,PressureIn,WindDirection,WindDirectionDegrees,WindSpeedMPH,WindSpeedGustMPH,Humidity,HourlyPrecipIn,Conditions,Clouds,dailyrainin,SoftwareType,DateUTC
2013-02-26 00:01:00,44.2,23.7,28.79,NW,304,2.7,6.0,44,0.00,,,0.00,WSDL version 420,2013-02-26 06:01:00,
2013-02-26 00:06:00,44.1,23.6,28.79,WNW,300,2.7,4.9,44,0.00,,,0.00,WSDL version 420,2013-02-26 06:06:00,
2013-02-26 00:11:00,44.0,23.5,28.79,WNW,288,3.2,4.9,44,0.00,,,0.00,WSDL version 420,2013-02-26 06:11:00,
2013-02-26 00:16:00,43.9,23.4,28.79,NW,318,3.1,5.4,44,0.00,,,0.00,WSDL version 420,2013-02-26 06:16:00,
2013-02-26 00:21:00,43.9,23.4,28.79,NW,315,3.9,6.3,44,0.00,,,0.00,WSDL version 420,2013-02-26 06:21:00,
2013-02-26 00:26:00,43.8,23.3,28.79,WNW,301,3.7,6.3,44,0.00,,,0.00,WSDL version 420,2013-02-26 06:26:00,
2013-02-26 00:31:00,43.7,23.3,28.79,NW,313,3.9,6.5,45,0.00,,,0.00,WSDL version 420,2013-02-26 06:31:00,
2013-02-26 00:36:00,43.7,23.8,28.79,NW,318,3.9,6.5,45,0.00,,,0.00,WSDL version 420,2013-02-26 06:36:00,
2013-02-26 00:41:00,43.7,23.5,28.79,NW,308,3.6,7.2,44,0.00,,,0.00,WSDL version 420,2013-02-26 06:41:00,
2013-02-26 00:46:00,43.6,23.5,28.79,NW,305,3.6,7.2,45,0.00,,,0.00,WSDL version 420,2013-02-26 06:46:00,
2013-02-26 00:51:00,43.5,23.6,28.79,NW,307,5.4,7.4,45,0.00,,,0.00,WSDL version 420,2013-02-26 06:51:00,
2013-02-26 00:56:00,43.3,23.4,28.79,NW,315,4.4,7.6,45,0.00,,,0.00,WSDL version 420,2013-02-26 06:56:00,
2013-02-26 01:01:00,43.3,23.4,28.79,NW,315,4.6,8.1,45,0.00,,,0.00,WSDL version 420,2013-02-26 07:01:00,
2013-02-26 01:06:00,43.3,23.4,28.79,NW,313,4.5,8.1,45,0.00,,,0.00,WSDL version 420,2013-02-26 07:06:00,
2013-02-26 01:11:00,43.2,23.3,28.79,NW,309,4.1,7.2,45,0.00,,,0.00,WSDL version 420,2013-02-26 07:11:00,
2013-02-26 01:16:00,43.0,23.1,28.79,NW,315,5.2,7.2,45,0.00,,,0.00,WSDL version 420,2013-02-26 07:16:00,
2013-02-26 01:21:00,43.0,23.1,28.79,NW,310,3.7,6.5,45,0.00,,,0.00,WSDL version 420,2013-02-26 07:21:00,
2013-02-26 01:26:00,42.8,23.0,28.79,NW,315,4.3,7.4,45,0.00,,,0.00,WSDL version 420,2013-02-26 07:26:00,
2013-02-26 01:31:00,42.8,22.9,28.79,NW,320,4.9,7.8,45,0.00,,,0.00,WSDL version 420,2013-02-26 07:31:00,
2013-02-26 01:36:00,42.7,22.9,28.79,WNW,298,3.9,7.8,46,0.00,,,0.00,WSDL version 420,2013-02-26 07:36:00,
2013-02-26 01:41:00,42.5,23.2,28.79,NW,313,3.9,6.3,46,0.00,,,0.00,WSDL version 420,2013-02-26 07:41:00,
2013-02-26 01:53:00,42.3,23.0,28.79,NNW,329,3.9,6.3,46,0.00,,,0.00,WSDL version 420,2013-02-26 07:53:00,
2013-02-26 01:58:00,42.3,23.0,28.79,NW,321,3.7,6.0,46,0.00,,,0.00,WSDL version 420,2013-02-26 07:58:00,
2013-02-26 02:09:00,42.1,22.8,28.79,NW,323,4.0,7.2,46,0.00,,,0.00,WSDL version 420,2013-02-26 08:09:00,
2013-02-26 02:19:00,42.0,22.7,28.79,NW,307,3.8,7.6,46,0.00,,,0.00,WSDL version 420,2013-02-26 08:19:00,
2013-02-26 02:29:00,41.7,22.5,28.79,NW,308,3.3,5.8,46,0.00,,,0.00,WSDL version 420,2013-02-26 08:29:00,
2013-02-26 02:40:00,41.6,22.4,28.79,NW,312,2.8,4.3,46,0.00,,,0.00,WSDL version 420,2013-02-26 08:40:00,
2013-02-26 03:21:00,41.0,21.8,28.79,NW,305,3.0,6.0,46,0.00,,,0.00,WSDL version 420,2013-02-26 09:21:00,
2013-02-26 03:26:00,40.9,22.1,28.79,NW,305,2.6,6.0,47,0.00,,,0.00,WSDL version 420,2013-02-26 09:26:00,
2013-02-26 03:31:00,40.7,22.0,28.82,NW,315,3.0,4.0,47,0.00,,,0.00,WSDL version 420,2013-02-26 09:31:00,
2013-02-26 03:36:00,40.6,22.0,28.82,NW,307,2.9,4.0,47,0.00,,,0.00,WSDL version 420,2013-02-26 09:36:00,
2013-02-26 03:41:00,40.6,22.0,28.82,WNW,298,3.1,4.0,47,0.00,,,0.00,WSDL version 420,2013-02-26 09:41:00,
2013-02-26 03:46:00,40.5,21.9,28.79,NW,307,3.2,4.0,47,0.00,,,0.00,WSDL version 420,2013-02-26 09:46:00,
2013-02-26 03:51:00,40.5,21.8,28.79,NW,308,2.8,6.0,47,0.00,,,0.00,WSDL version 420,2013-02-26 09:51:00,
2013-02-26 03:56:00,40.5,21.8,28.79,WNW,303,2.8,6.0,47,0.00,,,0.00,WSDL version 420,2013-02-26 09:56:00,
2013-02-26 04:01:00,40.5,21.8,28.82,WNW,301,2.6,4.3,47,0.00,,,0.00,WSDL version 420,2013-02-26 10:01:00,
2013-02-26 04:06:00,40.5,21.8,28.82,NW,305,2.5,4.3,47,0.00,,,0.00,WSDL version 420,2013-02-26 10:06:00,
2013-02-26 04:11:00,40.3,21.9,28.82,NW,312,2.7,4.3,47,0.00,,,0.00,WSDL version 420,2013-02-26 10:11:00,
2013-02-26 04:16:00,40.3,21.7,28.82,WNW,293,2.1,4.3,47,0.00,,,0.00,WSDL version 420,2013-02-26 10:16:00,
2013-02-26 04:21:00,40.3,21.8,28.82,WNW,293,2.7,4.3,47,0.00,,,0.00,WSDL version 420,2013-02-26 10:21:00,
2013-02-26 04:26:00,40.2,21.6,28.82,WNW,298,2.5,7.4,47,0.00,,,0.00,WSDL version 420,2013-02-26 10:26:00,
2013-02-26 04:31:00,40.1,22.0,28.82,WNW,293,2.2,7.4,48,0.00,,,0.00,WSDL version 420,2013-02-26 10:31:00,
2013-02-26 04:36:00,40.0,21.9,28.82,NW,304,1.9,3.8,48,0.00,,,0.00,WSDL version 420,2013-02-26 10:36:00,
2013-02-26 04:41:00,39.9,21.8,28.82,WNW,293,2.1,3.6,48,0.00,,,0.00,WSDL version 420,2013-02-26 10:41:00,
2013-02-26 04:46:00,39.8,21.8,28.82,WNW,298,1.7,3.6,48,0.00,,,0.00,WSDL version 420,2013-02-26 10:46:00,
2013-02-26 04:51:00,39.7,21.7,28.82,WNW,298,1.6,3.4,48,0.00,,,0.00,WSDL version 420,2013-02-26 10:51:00,
2013-02-26 04:56:00,39.7,21.6,28.82,WNW,295,1.9,3.1,48,0.00,,,0.00,WSDL version 420,2013-02-26 10:56:00,
2013-02-26 05:01:00,39.6,21.5,28.82,NW,304,1.7,3.1,48,0.00,,,0.00,WSDL version 420,2013-02-26 11:01:00,
2013-02-26 05:06:00,39.4,21.4,28.82,WNW,293,1.5,3.8,48,0.00,,,0.00,WSDL version 420,2013-02-26 11:06:00,
2013-02-26 05:11:00,39.4,21.3,28.82,NW,312,1.8,3.8,48,0.00,,,0.00,WSDL version 420,2013-02-26 11:11:00,
2013-02-26 05:16:00,39.2,21.2,28.82,WNW,303,2.0,3.1,48,0.00,,,0.00,WSDL version 420,2013-02-26 11:16:00,
2013-02-26 05:21:00,39.2,21.2,28.82,WNW,295,2.0,3.1,48,0.00,,,0.00,WSDL version 420,2013-02-26 11:21:00,
2013-02-26 05:26:00,39.1,21.3,28.82,WNW,298,2.1,3.4,49,0.00,,,0.00,WSDL version 420,2013-02-26 11:26:00,
2013-02-26 05:31:00,38.9,21.4,28.82,WNW,293,2.4,3.4,49,0.00,,,0.00,WSDL version 420,2013-02-26 11:31:00,
2013-02-26 05:36:00,38.8,21.3,28.82,WNW,283,1.8,3.1,49,0.00,,,0.00,WSDL version 420,2013-02-26 11:36:00,
2013-02-26 05:41:00,38.8,21.3,28.82,WNW,287,1.3,2.9,49,0.00,,,0.00,WSDL version 420,2013-02-26 11:41:00,
2013-02-26 05:46:00,38.7,21.2,28.82,WNW,295,1.4,2.9,49,0.00,,,0.00,WSDL version 420,2013-02-26 11:46:00,
2013-02-26 05:51:00,38.7,21.2,28.82,WNW,293,1.6,2.7,49,0.00,,,0.00,WSDL version 420,2013-02-26 11:51:00,
2013-02-26 05:56:00,38.5,21.0,28.82,NW,305,1.7,4.0,49,0.00,,,0.00,WSDL version 420,2013-02-26 11:56:00,
2013-02-26 06:01:00,38.5,21.0,28.82,WNW,298,1.9,4.0,49,0.00,,,0.00,WSDL version 420,2013-02-26 12:01:00,
2013-02-26 06:06:00,38.5,21.0,28.82,WNW,293,2.1,3.4,49,0.00,,,0.00,WSDL version 420,2013-02-26 12:06:00,
2013-02-26 06:17:00,38.3,20.8,28.82,WNW,293,1.2,2.9,49,0.00,,,0.00,WSDL version 420,2013-02-26 12:17:00,
2013-02-26 06:27:00,38.1,20.7,28.82,WNW,293,2.1,3.4,49,0.00,,,0.00,WSDL version 420,2013-02-26 12:27:00,
2013-02-26 06:37:00,37.9,20.5,28.82,NW,308,1.8,3.4,49,0.00,,,0.00,WSDL version 420,2013-02-26 12:37:00,
2013-02-26 06:51:00,37.7,20.7,28.82,WNW,293,2.2,3.4,50,0.00,,,0.00,WSDL version 420,2013-02-26 12:51:00,
2013-02-26 06:56:00,37.6,20.6,28.82,WNW,293,1.6,3.4,50,0.00,,,0.00,WSDL version 420,2013-02-26 12:56:00,
2013-02-26 07:01:00,37.6,20.6,28.85,West,280,1.4,2.9,50,0.00,,,0.00,WSDL version 420,2013-02-26 13:01:00,
2013-02-26 07:06:00,37.6,20.6,28.85,WNW,295,2.1,2.9,50,0.00,,,0.00,WSDL version 420,2013-02-26 13:06:00,
2013-02-26 07:11:00,37.6,20.6,28.85,WNW,298,1.8,3.1,50,0.00,,,0.00,WSDL version 420,2013-02-26 13:11:00,
2013-02-26 07:16:00,37.6,20.6,28.85,WNW,290,1.7,3.1,50,0.00,,,0.00,WSDL version 420,2013-02-26 13:16:00,
2013-02-26 07:21:00,37.6,20.6,28.85,WNW,290,1.5,3.4,50,0.00,,,0.00,WSDL version 420,2013-02-26 13:21:00,
2013-02-26 07:26:00,37.7,20.7,28.85,WNW,290,2.1,3.4,50,0.00,,,0.00,WSDL version 420,2013-02-26 13:26:00,
2013-02-26 07:31:00,37.9,20.9,28.85,NW,304,1.9,3.4,50,0.00,,,0.00,WSDL version 420,2013-02-26 13:31:00,
2013-02-26 07:36:00,38.0,21.0,28.85,WNW,298,2.1,3.4,50,0.00,,,0.00,WSDL version 420,2013-02-26 13:36:00,
2013-02-26 07:41:00,38.3,21.3,28.85,WNW,298,2.2,3.4,50,0.00,,,0.00,WSDL version 420,2013-02-26 13:41:00,
2013-02-26 07:46:00,38.7,21.7,28.85,WNW,303,2.5,4.5,50,0.00,,,0.00,WSDL version 420,2013-02-26 13:46:00,
2013-02-26 07:51:00,39.3,22.3,28.85,NW,305,2.6,4.5,50,0.00,,,0.00,WSDL version 420,2013-02-26 13:51:00,
2013-02-26 07:56:00,40.0,22.7,28.85,WNW,301,2.1,4.5,49,0.00,,,0.00,WSDL version 420,2013-02-26 13:56:00,
2013-02-26 08:01:00,40.8,23.1,28.85,West,276,2.0,4.5,49,0.00,,,0.00,WSDL version 420,2013-02-26 14:01:00,
2013-02-26 08:06:00,41.5,23.3,28.85,WNW,293,2.7,4.3,48,0.00,,,0.00,WSDL version 420,2013-02-26 14:06:00,
2013-02-26 08:11:00,42.0,23.6,28.85,NW,320,2.6,4.9,47,0.00,,,0.00,WSDL version 420,2013-02-26 14:11:00,
2013-02-26 08:21:00,43.4,23.5,28.88,WNW,293,3.3,6.3,45,0.00,,,0.00,WSDL version 420,2013-02-26 14:21:00,
2013-02-26 08:26:00,44.1,23.9,28.88,NW,308,3.0,6.3,44,0.00,,,0.00,WSDL version 420,2013-02-26 14:26:00,
2013-02-26 08:31:00,45.0,24.0,28.88,WNW,298,2.6,6.3,43,0.00,,,0.00,WSDL version 420,2013-02-26 14:31:00,
2013-02-26 08:36:00,45.8,24.2,28.88,NW,305,3.7,6.5,42,0.00,,,0.00,WSDL version 420,2013-02-26 14:36:00,
2013-02-26 08:41:00,46.3,24.3,28.88,NW,315,3.8,6.5,41,0.00,,,0.00,WSDL version 420,2013-02-26 14:41:00,
2013-02-26 08:46:00,46.6,23.9,28.88,NW,325,3.8,6.5,40,0.00,,,0.00,WSDL version 420,2013-02-26 14:46:00,
2013-02-26 08:51:00,47.2,24.1,28.88,NW,321,4.0,6.5,40,0.00,,,0.00,WSDL version 420,2013-02-26 14:51:00,
2013-02-26 08:56:00,47.5,24.3,28.88,NW,305,3.9,5.8,40,0.00,,,0.00,WSDL version 420,2013-02-26 14:56:00,
2013-02-26 09:01:00,48.4,24.7,28.88,NW,310,3.5,5.8,39,0.00,,,0.00,WSDL version 420,2013-02-26 15:01:00,
2013-02-26 09:06:00,48.7,24.9,28.88,WNW,299,3.3,5.6,39,0.00,,,0.00,WSDL version 420,2013-02-26 15:06:00,
2013-02-26 09:11:00,49.3,24.9,28.88,NW,310,3.9,5.6,38,0.00,,,0.00,WSDL version 420,2013-02-26 15:11:00,
2013-02-26 09:16:00,49.7,25.1,28.88,NW,315,3.1,5.8,38,0.00,,,0.00,WSDL version 420,2013-02-26 15:16:00,
2013-02-26 09:21:00,50.2,25.6,28.88,NNW,332,2.9,5.8,38,0.00,,,0.00,WSDL version 420,2013-02-26 15:21:00,
2013-02-26 09:26:00,50.8,25.4,28.88,NNW,329,4.4,5.8,37,0.00,,,0.00,WSDL version 420,2013-02-26 15:26:00,
2013-02-26 09:31:00,50.8,25.4,28.91,NW,326,3.7,5.8,37,0.00,,,0.00,WSDL version 420,2013-02-26 15:31:00,
2013-02-26 09:36:00,51.3,25.9,28.91,NW,318,3.7,6.3,37,0.00,,,0.00,WSDL version 420,2013-02-26 15:36:00,
2013-02-26 09:41:00,51.7,26.1,28.91,NW,318,2.6,6.3,37,0.00,,,0.00,WSDL version 420,2013-02-26 15:41:00,
2013-02-26 09:46:00,52.4,26.2,28.88,NW,308,3.7,5.8,36,0.00,,,0.00,WSDL version 420,2013-02-26 15:46:00,
2013-02-26 10:01:00,53.6,27.3,28.88,NW,308,3.9,6.0,36,0.00,,,0.00,WSDL version 420,2013-02-26 16:01:00,
2013-02-26 10:06:00,53.7,26.9,28.88,NW,315,3.4,6.0,35,0.00,,,0.00,WSDL version 420,2013-02-26 16:06:00,
2013-02-26 10:11:00,53.7,26.9,28.88,NW,323,3.8,5.6,35,0.00,,,0.00,WSDL version 420,2013-02-26 16:11:00,
2013-02-26 10:16:00,54.2,27.2,28.88,WNW,300,3.4,5.6,35,0.00,,,0.00,WSDL version 420,2013-02-26 16:16:00,
2013-02-26 10:21:00,54.7,27.6,28.88,NW,304,3.2,5.8,35,0.00,,,0.00,WSDL version 420,2013-02-26 16:21:00,
2013-02-26 10:26:00,54.5,27.5,28.88,NNW,330,3.5,5.8,35,0.00,,,0.00,WSDL version 420,2013-02-26 16:26:00,
2013-02-26 10:31:00,55.3,28.1,28.88,NW,307,2.2,5.6,35,0.00,,,0.00,WSDL version 420,2013-02-26 16:31:00,
2013-02-26 10:36:00,56.2,28.7,28.88,NW,309,3.9,5.8,34,0.00,,,0.00,WSDL version 420,2013-02-26 16:36:00,
2013-02-26 10:41:00,55.8,27.5,28.88,NNW,340,4.1,6.3,33,0.00,,,0.00,WSDL version 420,2013-02-26 16:41:00,
2013-02-26 10:53:00,56.8,28.1,28.91,NW,323,2.9,6.0,33,0.00,,,0.00,WSDL version 420,2013-02-26 16:53:00,
2013-02-26 10:58:00,57.4,28.4,28.91,NW,312,3.2,5.4,32,0.00,,,0.00,WSDL version 420,2013-02-26 16:58:00,
2013-02-26 11:09:00,58.2,28.2,28.91,NW,326,2.7,5.4,32,0.00,,,0.00,WSDL version 420,2013-02-26 17:09:00,
2013-02-26 11:19:00,59.7,28.6,28.91,WSW,254,2.5,5.8,31,0.00,,,0.00,WSDL version 420,2013-02-26 17:19:00,
2013-02-26 11:29:00,60.5,28.6,28.91,NNW,338,4.0,5.4,29,0.00,,,0.00,WSDL version 420,2013-02-26 17:29:00,
2013-02-26 11:40:00,61.1,28.1,28.91,NW,326,2.9,5.6,28,0.00,,,0.00,WSDL version 420,2013-02-26 17:40:00,
2013-02-26 11:52:00,62.7,29.2,28.88,NW,307,2.7,5.4,28,0.00,,,0.00,WSDL version 420,2013-02-26 17:52:00,
2013-02-26 11:57:00,62.8,28.7,28.88,NNW,338,3.0,4.7,27,0.00,,,0.00,WSDL version 420,2013-02-26 17:57:00,
2013-02-26 12:02:00,62.8,28.4,28.88,NW,321,3.0,4.7,27,0.00,,,0.00,WSDL version 420,2013-02-26 18:02:00,
2013-02-26 12:07:00,62.8,27.8,28.88,NW,323,3.3,4.9,26,0.00,,,0.00,WSDL version 420,2013-02-26 18:07:00,
2013-02-26 12:17:00,61.7,27.4,28.88,NW,326,2.8,6.0,27,0.00,,,0.00,WSDL version 420,2013-02-26 18:17:00,
2013-02-26 12:27:00,62.5,27.9,28.88,NNW,335,2.3,4.0,27,0.00,,,0.00,WSDL version 420,2013-02-26 18:27:00,
2013-02-26 12:37:00,62.3,28.0,28.88,NNW,335,2.9,4.9,27,0.00,,,0.00,WSDL version 420,2013-02-26 18:37:00,
2013-02-26 12:51:00,61.4,26.2,28.85,NNW,335,1.9,7.2,26,0.00,,,0.00,WSDL version 420,2013-02-26 18:51:00,
2013-02-26 13:01:00,61.6,26.9,28.85,NNW,340,2.5,5.4,26,0.00,,,0.00,WSDL version 420,2013-02-26 19:01:00,
2013-02-26 13:06:00,61.6,27.0,28.85,WNW,298,3.3,5.6,27,0.00,,,0.00,WSDL version 420,2013-02-26 19:06:00,
2013-02-26 13:11:00,62.0,27.4,28.85,West,259,1.8,5.6,27,0.00,,,0.00,WSDL version 420,2013-02-26 19:11:00,
2013-02-26 13:16:00,62.3,27.5,28.85,NW,320,3.3,4.9,26,0.00,,,0.00,WSDL version 420,2013-02-26 19:16:00,
2013-02-26 13:21:00,62.5,27.2,28.85,NW,309,1.7,4.9,26,0.00,,,0.00,WSDL version 420,2013-02-26 19:21:00,
2013-02-26 13:26:00,62.3,27.0,28.85,NNW,343,2.9,6.0,26,0.00,,,0.00,WSDL version 420,2013-02-26 19:26:00,
2013-02-26 13:31:00,62.6,26.6,28.82,NW,307,3.6,6.0,25,0.00,,,0.00,WSDL version 420,2013-02-26 19:31:00,
2013-02-26 13:36:00,63.2,27.8,28.82,NW,310,2.4,5.4,26,0.00,,,0.00,WSDL version 420,2013-02-26 19:36:00,
2013-02-26 13:41:00,63.2,27.0,28.82,NW,313,3.3,5.6,25,0.00,,,0.00,WSDL version 420,2013-02-26 19:41:00,
2013-02-26 13:46:00,63.2,26.8,28.82,NNW,338,3.8,5.6,25,0.00,,,0.00,WSDL version 420,2013-02-26 19:46:00,
2013-02-26 13:51:00,63.5,27.1,28.82,WNW,298,2.1,5.4,25,0.00,,,0.00,WSDL version 420,2013-02-26 19:51:00,
2013-02-26 13:56:00,63.8,27.3,28.82,NNW,343,1.4,3.8,25,0.00,,,0.00,WSDL version 420,2013-02-26 19:56:00,
2013-02-26 14:01:00,63.8,27.3,28.82,NW,325,3.1,5.4,25,0.00,,,0.00,WSDL version 420,2013-02-26 20:01:00,
2013-02-26 14:06:00,64.4,27.9,28.82,NNW,329,2.2,5.4,25,0.00,,,0.00,WSDL version 420,2013-02-26 20:06:00,
2013-02-26 14:11:00,64.2,27.6,28.82,NNW,328,3.2,6.3,25,0.00,,,0.00,WSDL version 420,2013-02-26 20:11:00,
2013-02-26 14:16:00,64.1,27.6,28.82,NNW,343,1.9,6.3,25,0.00,,,0.00,WSDL version 420,2013-02-26 20:16:00,
2013-02-26 14:21:00,64.4,27.1,28.82,WNW,293,2.8,5.4,24,0.00,,,0.00,WSDL version 420,2013-02-26 20:21:00,
2013-02-26 14:26:00,64.6,27.1,28.82,NW,325,2.5,5.4,24,0.00,,,0.00,WSDL version 420,2013-02-26 20:26:00,
2013-02-26 14:31:00,64.9,27.2,28.85,NW,307,2.5,5.4,24,0.00,,,0.00,WSDL version 420,2013-02-26 20:31:00,
2013-02-26 14:36:00,65.2,27.5,28.85,North,358,2.3,4.0,24,0.00,,,0.00,WSDL version 420,2013-02-26 20:36:00,
2013-02-26 14:41:00,65.3,27.6,28.85,West,278,2.4,3.8,24,0.00,,,0.00,WSDL version 420,2013-02-26 20:41:00,
2013-02-26 14:46:00,65.1,27.4,28.82,NNW,343,2.5,4.3,24,0.00,,,0.00,WSDL version 420,2013-02-26 20:46:00,
2013-02-26 14:51:00,65.0,27.4,28.82,NNW,343,2.9,4.9,24,0.00,,,0.00,WSDL version 420,2013-02-26 20:51:00,
2013-02-26 14:56:00,65.0,27.4,28.82,NNW,332,2.2,4.9,24,0.00,,,0.00,WSDL version 420,2013-02-26 20:56:00,
2013-02-26 15:01:00,65.1,27.4,28.82,NW,318,2.3,5.4,24,0.00,,,0.00,WSDL version 420,2013-02-26 21:01:00,
2013-02-26 15:06:00,65.2,27.5,28.82,NNW,338,2.6,5.4,24,0.00,,,0.00,WSDL version 420,2013-02-26 21:06:00,
2013-02-26 15:11:00,65.2,27.5,28.82,South,190,2.7,4.3,24,0.00,,,0.00,WSDL version 420,2013-02-26 21:11:00,
2013-02-26 15:16:00,65.4,27.7,28.82,West,267,2.3,4.3,24,0.00,,,0.00,WSDL version 420,2013-02-26 21:16:00,
2013-02-26 15:21:00,66.0,28.0,28.82,NW,313,1.6,4.3,24,0.00,,,0.00,WSDL version 420,2013-02-26 21:21:00,
2013-02-26 15:26:00,66.3,27.6,28.82,NNW,348,2.7,3.6,23,0.00,,,0.00,WSDL version 420,2013-02-26 21:26:00,
2013-02-26 15:31:00,66.6,27.7,28.79,WNW,283,1.8,3.6,23,0.00,,,0.00,WSDL version 420,2013-02-26 21:31:00,
2013-02-26 15:36:00,66.8,27.9,28.79,SW,215,2.7,4.7,23,0.00,,,0.00,WSDL version 420,2013-02-26 21:36:00,
2013-02-26 15:41:00,66.7,27.7,28.79,NE,39,2.0,4.7,23,0.00,,,0.00,WSDL version 420,2013-02-26 21:41:00,
2013-02-26 15:46:00,67.6,28.5,28.79,NW,310,2.2,3.8,23,0.00,,,0.00,WSDL version 420,2013-02-26 21:46:00,
2013-02-26 15:51:00,67.9,28.8,28.79,WNW,301,2.0,3.8,23,0.00,,,0.00,WSDL version 420,2013-02-26 21:51:00,
2013-02-26 15:56:00,68.1,28.9,28.79,NE,38,1.5,3.8,23,0.00,,,0.00,WSDL version 420,2013-02-26 21:56:00,
2013-02-26 16:07:00,68.0,28.8,28.79,NE,48,1.8,3.4,23,0.00,,,0.00,WSDL version 420,2013-02-26 22:07:00,
2013-02-26 16:17:00,67.9,28.8,28.79,NW,312,1.7,2.9,23,0.00,,,0.00,WSDL version 420,2013-02-26 22:17:00,
2013-02-26 16:27:00,67.8,28.7,28.79,NNW,346,1.8,2.9,23,0.00,,,0.00,WSDL version 420,2013-02-26 22:27:00,
2013-02-26 16:38:00,67.1,28.1,28.82,West,275,1.2,3.4,23,0.00,,,0.00,WSDL version 420,2013-02-26 22:38:00,
2013-02-26 16:51:00,66.4,27.5,28.79,NW,315,1.3,2.7,23,0.00,,,0.00,WSDL version 420,2013-02-26 22:51:00,
2013-02-26 16:56:00,65.9,28.0,28.79,WNW,293,0.4,2.7,24,0.00,,,0.00,WSDL version 420,2013-02-26 22:56:00,
2013-02-26 17:01:00,65.6,27.9,28.79,WNW,293,0.6,1.6,24,0.00,,,0.00,WSDL version 420,2013-02-26 23:01:00,
2013-02-26 17:06:00,65.4,27.7,28.79,WNW,293,0.0,1.6,24,0.00,,,0.00,WSDL version 420,2013-02-26 23:06:00,
2013-02-26 17:11:00,64.9,27.2,28.79,West,259,1.2,2.9,24,0.00,,,0.00,WSDL version 420,2013-02-26 23:11:00,
2013-02-26 17:32:00,62.9,25.6,28.79,WSW,248,0.0,0.0,24,0.00,,,0.00,WSDL version 420,2013-02-26 23:32:00,
2013-02-26 17:37:00,62.6,25.6,28.79,WSW,248,0.0,0.0,25,0.00,,,0.00,WSDL version 420,2013-02-26 23:37:00,
2013-02-26 17:42:00,62.1,25.9,28.79,WSW,248,0.0,0.0,25,0.00,,,0.00,WSDL version 420,2013-02-26 23:42:00,
2013-02-26 17:47:00,61.8,25.6,28.79,WSW,248,0.0,0.0,25,0.00,,,0.00,WSDL version 420,2013-02-26 23:47:00,
2013-02-26 17:57:00,61.0,25.0,28.79,West,270,0.0,0.0,25,0.00,,,0.00,WSDL version 420,2013-02-26 23:57:00,
2013-02-26 18:08:00,60.2,25.0,28.79,West,273,0.0,0.0,26,0.00,,,0.00,WSDL version 420,2013-02-27 00:08:00,
2013-02-26 18:18:00,58.7,24.1,28.79,WNW,293,0.0,0.0,27,0.00,,,0.00,WSDL version 420,2013-02-27 00:18:00,
2013-02-26 18:28:00,57.5,23.8,28.82,WNW,293,0.0,0.0,27,0.00,,,0.00,WSDL version 420,2013-02-27 00:28:00,
2013-02-26 18:39:00,55.9,23.3,28.82,WNW,293,0.0,0.0,28,0.00,,,0.00,WSDL version 420,2013-02-27 00:39:00,
2013-02-26 19:01:00,54.4,23.4,28.79,WNW,293,0.0,0.0,30,0.00,,,0.00,WSDL version 420,2013-02-27 01:01:00,
2013-02-26 19:11:00,53.8,23.1,28.79,WNW,293,0.0,0.0,30,0.00,,,0.00,WSDL version 420,2013-02-27 01:11:00,
2013-02-26 19:16:00,53.4,23.9,28.79,WNW,293,0.0,0.0,32,0.00,,,0.00,WSDL version 420,2013-02-27 01:16:00,
2013-02-26 19:21:00,52.8,24.5,28.79,WNW,293,0.0,0.0,33,0.00,,,0.00,WSDL version 420,2013-02-27 01:21:00,
2013-02-26 19:26:00,52.6,24.9,28.79,WNW,293,0.0,0.0,33,0.00,,,0.00,WSDL version 420,2013-02-27 01:26:00,
2013-02-26 19:31:00,52.4,25.0,28.82,WNW,293,0.0,0.0,35,0.00,,,0.00,WSDL version 420,2013-02-27 01:31:00,
2013-02-26 19:37:00,52.0,25.7,28.82,WNW,293,0.0,0.0,36,0.00,,,0.00,WSDL version 420,2013-02-27 01:37:00,
2013-02-26 19:41:00,51.4,25.3,28.82,WNW,293,0.0,0.0,36,0.00,,,0.00,WSDL version 420,2013-02-27 01:41:00,
2013-02-26 19:46:00,50.9,24.9,28.82,WNW,293,0.0,0.0,36,0.00,,,0.00,WSDL version 420,2013-02-27 01:46:00,
2013-02-26 19:51:00,51.1,25.3,28.82,WNW,293,0.0,0.0,37,0.00,,,0.00,WSDL version 420,2013-02-27 01:51:00,
2013-02-26 19:56:00,50.8,25.4,28.82,WNW,293,0.0,0.0,37,0.00,,,0.00,WSDL version 420,2013-02-27 01:56:00,
2013-02-26 20:01:00,50.7,24.9,28.82,WNW,293,0.0,0.0,37,0.00,,,0.00,WSDL version 420,2013-02-27 02:01:00,
2013-02-26 20:06:00,50.5,25.1,28.82,WNW,293,0.0,0.0,37,0.00,,,0.00,WSDL version 420,2013-02-27 02:06:00,
2013-02-26 20:11:00,50.4,25.1,28.82,WNW,293,0.0,0.0,37,0.00,,,0.00,WSDL version 420,2013-02-27 02:11:00,
2013-02-26 20:16:00,50.1,24.8,28.82,WNW,293,0.0,0.0,37,0.00,,,0.00,WSDL version 420,2013-02-27 02:16:00,
2013-02-26 20:21:00,49.9,24.7,28.82,WNW,293,0.0,0.0,37,0.00,,,0.00,WSDL version 420,2013-02-27 02:21:00,
2013-02-26 20:31:00,49.9,24.7,28.82,WNW,293,0.0,0.0,37,0.00,,,0.00,WSDL version 420,2013-02-27 02:31:00,
2013-02-26 20:41:00,50.2,24.9,28.82,WNW,293,0.0,0.0,37,0.00,,,0.00,WSDL version 420,2013-02-27 02:41:00,
2013-02-26 20:46:00,50.0,24.7,28.82,WNW,293,0.0,0.0,37,0.00,,,0.00,WSDL version 420,2013-02-27 02:46:00,
2013-02-26 20:51:00,49.7,24.5,28.82,WNW,293,0.0,0.0,37,0.00,,,0.00,WSDL version 420,2013-02-27 02:51:00,
2013-02-26 20:56:00,49.4,24.2,28.82,WNW,293,0.0,0.0,37,0.00,,,0.00,WSDL version 420,2013-02-27 02:56:00,
2013-02-26 21:01:00,49.0,23.9,28.82,WNW,293,0.0,1.1,37,0.00,,,0.00,WSDL version 420,2013-02-27 03:01:00,
2013-02-26 21:06:00,48.8,24.1,28.82,WNW,293,0.0,1.1,38,0.00,,,0.00,WSDL version 420,2013-02-27 03:06:00,
2013-02-26 21:11:00,48.7,24.3,28.82,WNW,293,0.0,0.0,38,0.00,,,0.00,WSDL version 420,2013-02-27 03:11:00,
2013-02-26 21:16:00,48.7,24.2,28.85,WNW,293,0.0,0.0,38,0.00,,,0.00,WSDL version 420,2013-02-27 03:16:00,
2013-02-26 21:21:00,48.5,24.1,28.85,WNW,293,0.0,0.0,38,0.00,,,0.00,WSDL version 420,2013-02-27 03:21:00,
2013-02-26 21:26:00,48.3,23.9,28.85,WNW,293,0.0,0.0,38,0.00,,,0.00,WSDL version 420,2013-02-27 03:26:00,
2013-02-26 21:31:00,48.1,23.7,28.85,WNW,293,0.0,0.0,38,0.00,,,0.00,WSDL version 420,2013-02-27 03:31:00,
2013-02-26 21:36:00,47.9,23.6,28.85,WNW,293,0.0,0.0,39,0.00,,,0.00,WSDL version 420,2013-02-27 03:36:00,
2013-02-26 21:41:00,47.6,23.4,28.85,WNW,293,0.0,0.0,39,0.00,,,0.00,WSDL version 420,2013-02-27 03:41:00,
2013-02-26 21:52:00,47.0,23.5,28.85,WNW,293,0.0,0.0,40,0.00,,,0.00,WSDL version 420,2013-02-27 03:52:00,
2013-02-26 21:57:00,46.6,23.0,28.85,WNW,293,0.0,0.0,39,0.00,,,0.00,WSDL version 420,2013-02-27 03:57:00,
2013-02-26 22:07:00,46.2,23.2,28.82,WNW,293,0.0,0.0,40,0.00,,,0.00,WSDL version 420,2013-02-27 04:07:00,
2013-02-26 22:17:00,45.5,22.6,28.82,WNW,293,0.0,0.0,40,0.00,,,0.00,WSDL version 420,2013-02-27 04:17:00,
2013-02-26 22:27:00,44.6,22.0,28.82,NNW,338,0.0,1.3,41,0.00,,,0.00,WSDL version 420,2013-02-27 04:27:00,
2013-02-26 22:38:00,44.1,21.9,28.82,NNW,338,0.0,0.0,41,0.00,,,0.00,WSDL version 420,2013-02-27 04:38:00,
2013-02-26 22:51:00,43.4,21.5,28.82,NNW,338,0.0,0.0,41,0.00,,,0.00,WSDL version 420,2013-02-27 04:51:00,
2013-02-26 22:56:00,43.0,21.5,28.82,NNW,338,0.0,0.0,42,0.00,,,0.00,WSDL version 420,2013-02-27 04:56:00,
2013-02-26 23:01:00,42.8,21.5,28.85,NNW,338,0.0,0.0,43,0.00,,,0.00,WSDL version 420,2013-02-27 05:01:00,
2013-02-26 23:06:00,42.2,21.8,28.85,South,180,0.0,1.1,44,0.00,,,0.00,WSDL version 420,2013-02-27 05:06:00,
2013-02-26 23:17:00,42.1,21.5,28.82,WNW,293,0.0,0.0,43,0.00,,,0.00,WSDL version 420,2013-02-27 05:17:00,
2013-02-26 23:27:00,41.7,21.3,28.82,NW,315,0.0,1.3,44,0.00,,,0.00,WSDL version 420,2013-02-27 05:27:00,
2013-02-26 23:37:00,41.5,21.3,28.82,NW,315,0.0,0.0,44,0.00,,,0.00,WSDL version 420,2013-02-27 05:37:00,
2013-02-26 23:51:00,41.2,21.0,28.82,NW,315,0.0,0.0,44,0.00,,,0.00,WSDL version 420,2013-02-27 05:51:00,